METAR Data
IDs: Format: Raw Decoded Include TAF

Data at: 2150 UTC 02 Oct 2022

METAR for:KASE (Aspen/Pitkin Cnty, CO, US)
Text:KASE 022053Z 00000KT 10SM CLR 14/05 A3031 RMK AO2 SLP175 T01390050 57010
Temperature: 13.9°C ( 57°F)
Dewpoint: 5.0°C ( 41°F) [RH = 55%]
Pressure (altimeter):30.31 inches Hg (1026.5 mb) [Sea level pressure: 1017.5 mb]
Winds:calm
Visibility:10 or more sm (16+ km)
Ceiling:at least 12,000 feet AGL
Clouds:sky clear below 12,000 feet AGL